Time;durP1;ratioP1;P1;durP2;ratioP2;P2;SDS_P1;SDS_P2;PMS_P1;PMS_P2;Temp;Humidity;BMP_temperature;BMP_pressure;BME280_temperature;BME280_humidity;BME280_pressure;Samples;Min_cycle;Max_cycle;Signal;HPM_P1;HPM_P2
2023/12/29 00:02:03;;;;;;;126.10;85.35;;;;;;;;;;4957576;28;20058;-63
2023/12/29 00:04:28;;;;;;;166.15;109.75;;;;;;;;;;4967076;28;20038;-64
2023/12/29 00:06:54;;;;;;;157.90;109.07;;;;;;;;;;4961800;28;20038;-63
2023/12/29 00:09:22;;;;;;;82.85;60.15;;;;;;;;;;4960198;28;20046;-64
2023/12/29 00:11:51;;;;;;;43.58;33.00;;;;;;;;;;4965308;28;20129;-64
2023/12/29 00:14:16;;;;;;;40.45;31.58;;;;;;;;;;4965765;28;20029;-64
2023/12/29 00:16:43;;;;;;;40.13;29.98;;;;;;;;;;4967437;28;20030;-66
2023/12/29 00:19:09;;;;;;;59.63;40.67;;;;;;;;;;4968460;28;20084;-65
2023/12/29 00:21:35;;;;;;;86.70;60.83;;;;;;;;;;4967344;28;20035;-64
2023/12/29 00:24:00;;;;;;;108.38;72.10;;;;;;;;;;4967934;28;20031;-63
2023/12/29 00:26:26;;;;;;;73.22;53.60;;;;;;;;;;4965141;28;20045;-65
2023/12/29 00:28:51;;;;;;;123.30;83.72;;;;;;;;;;4955781;28;20062;-63
2023/12/29 00:31:16;;;;;;;363.05;192.48;;;;;;;;;;4951559;28;20034;-63
2023/12/29 00:33:45;;;;;;;150.32;103.22;;;;;;;;;;4963864;28;20089;-64
2023/12/29 00:36:16;;;;;;;119.55;74.00;;;;;;;;;;4954123;28;20023;-66
2023/12/29 00:38:42;;;;;;;253.02;128.65;;;;;;;;;;4966042;28;20470;-65
2023/12/29 00:41:07;;;;;;;154.05;83.13;;;;;;;;;;4966316;28;20027;-63
2023/12/29 00:43:33;;;;;;;151.38;92.38;;;;;;;;;;4966241;28;20031;-66
2023/12/29 00:45:58;;;;;;;127.63;81.28;;;;;;;;;;4965556;28;20506;-64
2023/12/29 00:48:23;;;;;;;110.60;74.40;;;;;;;;;;4955324;28;20037;-66
2023/12/29 00:50:49;;;;;;;103.45;67.20;;;;;;;;;;4964485;28;20038;-63
2023/12/29 00:53:14;;;;;;;81.85;57.97;;;;;;;;;;4945208;28;20076;-64
2023/12/29 00:55:40;;;;;;;122.15;87.55;;;;;;;;;;4955021;28;20058;-65
2023/12/29 00:58:05;;;;;;;108.18;78.35;;;;;;;;;;4969799;28;20039;-63
2023/12/29 01:00:30;;;;;;;107.10;75.82;;;;;;;;;;4970908;28;20034;-67
2023/12/29 01:02:56;;;;;;;104.25;74.97;;;;;;;;;;4973275;28;20061;-68
2023/12/29 01:05:21;;;;;;;113.88;79.68;;;;;;;;;;4971955;28;20034;-64
2023/12/29 01:07:47;;;;;;;79.15;61.20;;;;;;;;;;4969700;28;20046;-65
2023/12/29 01:10:12;;;;;;;209.98;139.18;;;;;;;;;;4970247;28;20050;-63
2023/12/29 01:12:37;;;;;;;215.27;144.38;;;;;;;;;;4971343;28;20234;-64
2023/12/29 01:15:03;;;;;;;201.23;134.77;;;;;;;;;;4970637;28;20026;-66
2023/12/29 01:17:28;;;;;;;298.73;195.65;;;;;;;;;;4970504;28;20344;-65
2023/12/29 01:19:54;;;;;;;221.50;147.00;;;;;;;;;;4963568;28;20022;-63
2023/12/29 01:22:19;;;;;;;192.57;127.10;;;;;;;;;;4961698;28;20026;-64
2023/12/29 01:24:45;;;;;;;162.38;113.28;;;;;;;;;;4968178;28;20072;-65
2023/12/29 01:27:10;;;;;;;151.45;108.55;;;;;;;;;;4968577;28;20031;-63
2023/12/29 01:29:35;;;;;;;126.88;90.50;;;;;;;;;;4956281;28;20034;-63
2023/12/29 01:32:03;;;;;;;63.90;47.75;;;;;;;;;;4962039;28;20113;-64
2023/12/29 01:34:32;;;;;;;65.28;48.50;;;;;;;;;;4955602;28;20035;-62
2023/12/29 01:36:58;;;;;;;77.00;56.40;;;;;;;;;;4956237;28;20030;-63
2023/12/29 01:39:23;;;;;;;56.25;43.33;;;;;;;;;;4955846;28;20034;-63
2023/12/29 01:41:48;;;;;;;47.83;36.30;;;;;;;;;;4965909;28;20478;-64
2023/12/29 01:44:14;;;;;;;46.90;33.90;;;;;;;;;;4959199;28;20386;-63
2023/12/29 01:46:39;;;;;;;39.40;30.73;;;;;;;;;;4954920;28;20031;-64
2023/12/29 01:49:04;;;;;;;40.65;30.10;;;;;;;;;;4957239;28;20026;-65
2023/12/29 01:51:30;;;;;;;159.02;104.05;;;;;;;;;;4965095;28;20427;-66
2023/12/29 01:53:57;;;;;;;235.77;166.00;;;;;;;;;;4961254;28;20038;-65
2023/12/29 01:56:28;;;;;;;103.60;75.85;;;;;;;;;;4958508;28;20038;-65
2023/12/29 01:58:55;;;;;;;67.75;51.25;;;;;;;;;;4968162;28;20029;-65
2023/12/29 02:01:20;;;;;;;54.25;41.60;;;;;;;;;;4969215;28;20088;-63
2023/12/29 02:03:46;;;;;;;309.55;169.82;;;;;;;;;;4969544;28;20030;-63
2023/12/29 02:06:12;;;;;;;370.52;202.38;;;;;;;;;;4970938;28;20041;-64
2023/12/29 02:08:37;;;;;;;79.20;50.35;;;;;;;;;;4967261;28;20807;-63
2023/12/29 02:11:04;;;;;;;41.72;27.95;;;;;;;;;;4968093;28;20041;-66
2023/12/29 02:13:29;;;;;;;46.53;33.33;;;;;;;;;;4963805;28;20351;-64
2023/12/29 02:15:56;;;;;;;35.65;24.65;;;;;;;;;;4961917;28;20030;-64
2023/12/29 02:18:22;;;;;;;27.83;19.63;;;;;;;;;;4966897;28;20413;-64
2023/12/29 02:20:47;;;;;;;25.20;19.48;;;;;;;;;;4967359;28;20034;-64
2023/12/29 02:23:13;;;;;;;44.58;33.47;;;;;;;;;;4970705;28;20034;-64
2023/12/29 02:25:38;;;;;;;57.97;41.85;;;;;;;;;;4969463;28;20031;-65
2023/12/29 02:28:09;;;;;;;31.88;25.58;;;;;;;;;;4965855;28;20446;-65
2023/12/29 02:30:35;;;;;;;21.92;18.10;;;;;;;;;;4971193;28;20031;-65
2023/12/29 02:33:02;;;;;;;31.00;23.23;;;;;;;;;;4967370;28;20038;-63
2023/12/29 02:35:28;;;;;;;30.63;23.13;;;;;;;;;;4967056;28;20106;-65
2023/12/29 02:37:54;;;;;;;55.75;40.88;;;;;;;;;;4967894;28;20027;-65
2023/12/29 02:40:20;;;;;;;32.25;24.98;;;;;;;;;;4967383;28;20045;-64
2023/12/29 02:42:47;;;;;;;24.20;19.63;;;;;;;;;;4969221;28;20034;-65
2023/12/29 02:45:12;;;;;;;93.60;68.80;;;;;;;;;;4969497;28;20026;-66
2023/12/29 02:47:37;;;;;;;22.95;19.05;;;;;;;;;;4962547;28;20110;-64
2023/12/29 02:50:03;;;;;;;81.28;59.47;;;;;;;;;;4963634;28;20380;-65
2023/12/29 02:52:28;;;;;;;53.42;41.50;;;;;;;;;;4967909;28;20375;-63
2023/12/29 02:54:53;;;;;;;35.90;28.60;;;;;;;;;;4968209;28;20350;-62
2023/12/29 02:57:19;;;;;;;24.60;19.48;;;;;;;;;;4965259;28;20502;-65
2023/12/29 02:59:45;;;;;;;64.57;49.38;;;;;;;;;;4958509;28;20125;-63
2023/12/29 03:02:10;;;;;;;22.95;17.92;;;;;;;;;;4969487;28;20034;-63
2023/12/29 03:04:35;;;;;;;50.97;37.78;;;;;;;;;;4966089;28;20437;-64
2023/12/29 03:07:01;;;;;;;119.25;80.68;;;;;;;;;;4968171;28;20093;-65
2023/12/29 03:09:26;;;;;;;71.05;47.13;;;;;;;;;;4972059;28;20428;-65
2023/12/29 03:11:53;;;;;;;40.50;29.95;;;;;;;;;;4968105;28;20121;-65
2023/12/29 03:14:18;;;;;;;32.75;22.50;;;;;;;;;;4966641;28;20046;-64
2023/12/29 03:16:43;;;;;;;33.67;25.83;;;;;;;;;;4965881;28;20037;-64
2023/12/29 03:19:09;;;;;;;25.02;20.17;;;;;;;;;;4959415;28;20072;-64
2023/12/29 03:21:34;;;;;;;25.48;21.42;;;;;;;;;;4968107;28;20066;-63
2023/12/29 03:23:59;;;;;;;25.70;22.52;;;;;;;;;;4969071;28;20023;-63
2023/12/29 03:26:25;;;;;;;19.63;17.05;;;;;;;;;;4965899;28;20445;-63
2023/12/29 03:28:50;;;;;;;29.75;22.20;;;;;;;;;;4966615;28;20023;-66
2023/12/29 03:31:15;;;;;;;63.40;48.25;;;;;;;;;;4969096;28;20057;-63
2023/12/29 03:33:41;;;;;;;54.88;42.25;;;;;;;;;;4966919;28;20031;-64
2023/12/29 03:36:08;;;;;;;27.13;21.85;;;;;;;;;;4966733;28;20447;-65
2023/12/29 03:38:34;;;;;;;29.85;23.00;;;;;;;;;;4965963;28;20027;-62
2023/12/29 03:40:59;;;;;;;68.65;48.03;;;;;;;;;;4966847;28;20042;-66
2023/12/29 03:43:24;;;;;;;20.02;14.90;;;;;;;;;;4962493;28;20023;-63
2023/12/29 03:45:50;;;;;;;20.65;16.25;;;;;;;;;;4947032;28;20053;-63
2023/12/29 03:48:15;;;;;;;11.85;9.88;;;;;;;;;;4967863;28;20095;-63
2023/12/29 03:50:40;;;;;;;51.58;38.42;;;;;;;;;;4967069;28;20026;-66
2023/12/29 03:53:06;;;;;;;40.83;33.22;;;;;;;;;;4957155;28;20149;-65
2023/12/29 03:55:31;;;;;;;35.15;29.05;;;;;;;;;;4967193;28;20089;-64
2023/12/29 03:57:56;;;;;;;42.97;34.90;;;;;;;;;;4969000;28;20035;-63
2023/12/29 04:00:22;;;;;;;50.00;38.30;;;;;;;;;;4966505;28;20052;-62
2023/12/29 04:02:47;;;;;;;52.13;42.05;;;;;;;;;;4959220;28;20729;-64
2023/12/29 04:05:12;;;;;;;43.10;34.15;;;;;;;;;;4963837;28;20328;-63
2023/12/29 04:07:41;;;;;;;69.00;56.92;;;;;;;;;;4966809;28;20030;-63
2023/12/29 04:10:08;;;;;;;73.18;57.35;;;;;;;;;;4966820;28;20086;-65
2023/12/29 04:12:33;;;;;;;79.32;63.08;;;;;;;;;;4967891;28;20049;-63
2023/12/29 04:14:58;;;;;;;75.15;61.13;;;;;;;;;;4968982;28;20030;-63
2023/12/29 04:17:24;;;;;;;60.30;46.53;;;;;;;;;;4960427;28;20034;-62
2023/12/29 04:19:49;;;;;;;54.72;44.13;;;;;;;;;;4959482;28;20035;-63
2023/12/29 04:22:14;;;;;;;86.28;71.75;;;;;;;;;;4965362;28;20038;-63
2023/12/29 04:24:40;;;;;;;101.30;80.05;;;;;;;;;;4967870;28;20026;-64
2023/12/29 04:27:05;;;;;;;53.63;43.90;;;;;;;;;;4969664;28;20082;-63
2023/12/29 04:29:30;;;;;;;107.88;85.13;;;;;;;;;;4959029;28;20427;-64
2023/12/29 04:31:56;;;;;;;128.57;96.53;;;;;;;;;;4970215;28;20706;-63
2023/12/29 04:34:21;;;;;;;87.35;68.88;;;;;;;;;;4973850;28;20608;-65
2023/12/29 04:36:46;;;;;;;91.03;72.85;;;;;;;;;;4968577;28;20362;-63
2023/12/29 04:39:12;;;;;;;347.38;244.50;;;;;;;;;;4960043;28;20026;-64
2023/12/29 04:41:37;;;;;;;437.90;302.27;;;;;;;;;;4968411;28;20038;-62
2023/12/29 04:44:03;;;;;;;141.75;98.40;;;;;;;;;;4973149;28;20423;-62
2023/12/29 04:46:28;;;;;;;88.18;63.65;;;;;;;;;;4972983;28;20340;-66
2023/12/29 04:48:53;;;;;;;114.95;90.00;;;;;;;;;;4972955;28;20026;-63
2023/12/29 04:51:19;;;;;;;426.23;367.40;;;;;;;;;;4959453;28;20041;-66
2023/12/29 04:53:44;;;;;;;283.38;227.90;;;;;;;;;;4965283;28;20022;-63
2023/12/29 04:56:10;;;;;;;155.02;126.90;;;;;;;;;;4941224;28;20026;-65
2023/12/29 04:58:35;;;;;;;162.43;134.32;;;;;;;;;;4955740;28;20753;-65
2023/12/29 05:01:01;;;;;;;174.02;150.40;;;;;;;;;;4956604;28;20118;-63
2023/12/29 05:03:26;;;;;;;134.05;111.30;;;;;;;;;;4955382;28;20118;-63
2023/12/29 05:05:51;;;;;;;68.75;56.58;;;;;;;;;;4965797;28;20101;-63
2023/12/29 05:08:17;;;;;;;50.83;44.33;;;;;;;;;;4969823;28;20085;-64
2023/12/29 05:10:42;;;;;;;172.73;154.13;;;;;;;;;;4971654;28;20143;-65
2023/12/29 05:13:08;;;;;;;93.13;81.63;;;;;;;;;;4963417;28;20104;-64
2023/12/29 05:15:33;;;;;;;79.97;71.35;;;;;;;;;;4964964;28;20034;-63
2023/12/29 05:17:58;;;;;;;80.70;72.00;;;;;;;;;;4960614;28;20389;-68
2023/12/29 05:20:24;;;;;;;104.60;93.22;;;;;;;;;;4967622;28;20047;-67
2023/12/29 05:22:49;;;;;;;96.35;85.07;;;;;;;;;;4971128;28;20070;-65
2023/12/29 05:25:14;;;;;;;235.20;195.52;;;;;;;;;;4968918;28;20120;-63
2023/12/29 05:27:40;;;;;;;175.95;139.95;;;;;;;;;;4969526;28;20034;-63
2023/12/29 05:30:06;;;;;;;160.20;131.75;;;;;;;;;;4971628;28;20125;-63
2023/12/29 05:32:31;;;;;;;74.40;58.67;;;;;;;;;;4968610;28;20042;-64
2023/12/29 05:34:56;;;;;;;78.38;59.67;;;;;;;;;;4969731;28;20035;-65
2023/12/29 05:37:22;;;;;;;55.60;43.65;;;;;;;;;;4970474;28;20023;-63
2023/12/29 05:39:47;;;;;;;45.67;33.50;;;;;;;;;;4962790;28;20035;-63
2023/12/29 05:42:12;;;;;;;50.40;37.85;;;;;;;;;;4953177;28;20049;-65
2023/12/29 05:44:38;;;;;;;71.32;52.60;;;;;;;;;;4960780;28;20376;-63
2023/12/29 05:47:04;;;;;;;54.55;44.67;;;;;;;;;;4970066;28;20034;-63
2023/12/29 05:49:30;;;;;;;42.90;34.10;;;;;;;;;;4970287;28;20025;-64
2023/12/29 05:51:55;;;;;;;40.67;34.35;;;;;;;;;;4966809;28;20049;-63
2023/12/29 05:54:20;;;;;;;90.40;80.68;;;;;;;;;;4971538;28;20031;-64
2023/12/29 05:56:46;;;;;;;65.95;55.75;;;;;;;;;;4975535;28;20049;-64
2023/12/29 05:59:11;;;;;;;60.17;52.63;;;;;;;;;;4969572;28;20221;-63
2023/12/29 06:01:37;;;;;;;59.22;49.92;;;;;;;;;;4965241;28;20038;-66
2023/12/29 06:04:02;;;;;;;65.25;54.15;;;;;;;;;;4968263;28;20037;-64
2023/12/29 06:06:27;;;;;;;78.88;68.80;;;;;;;;;;4971051;28;20019;-64
2023/12/29 06:08:53;;;;;;;73.88;63.10;;;;;;;;;;4970108;28;20043;-63
2023/12/29 06:11:19;;;;;;;78.28;67.70;;;;;;;;;;4961410;28;20785;-62
2023/12/29 06:13:44;;;;;;;64.03;54.72;;;;;;;;;;4960849;28;20380;-63
2023/12/29 06:16:16;;;;;;;65.80;54.67;;;;;;;;;;4955515;28;20034;-65
2023/12/29 06:18:41;;;;;;;66.40;55.35;;;;;;;;;;4956886;28;20026;-66
2023/12/29 06:21:07;;;;;;;70.80;61.15;;;;;;;;;;4971987;28;20112;-65
2023/12/29 06:23:32;;;;;;;84.47;73.28;;;;;;;;;;4969961;28;20038;-63
2023/12/29 06:25:58;;;;;;;98.70;83.55;;;;;;;;;;4969337;28;20041;-64
2023/12/29 06:28:23;;;;;;;74.28;62.42;;;;;;;;;;4967062;28;20170;-65
2023/12/29 06:30:48;;;;;;;59.70;51.95;;;;;;;;;;4970696;28;20469;-64
2023/12/29 06:33:14;;;;;;;64.40;51.78;;;;;;;;;;4966621;28;20031;-64
2023/12/29 06:35:39;;;;;;;85.13;70.50;;;;;;;;;;4969704;28;20042;-63
2023/12/29 06:38:04;;;;;;;83.65;68.75;;;;;;;;;;4968410;28;20022;-62
2023/12/29 06:40:30;;;;;;;81.53;67.80;;;;;;;;;;4960936;28;20121;-64
2023/12/29 06:42:55;;;;;;;65.93;58.13;;;;;;;;;;4967659;28;20038;-63
2023/12/29 06:45:21;;;;;;;124.65;109.38;;;;;;;;;;4968679;28;20026;-64
2023/12/29 06:47:46;;;;;;;112.35;100.07;;;;;;;;;;4966864;28;20493;-63
2023/12/29 06:50:12;;;;;;;118.30;101.07;;;;;;;;;;4968615;28;20046;-65
2023/12/29 06:52:38;;;;;;;136.02;102.40;;;;;;;;;;4967682;28;20030;-63
2023/12/29 06:55:03;;;;;;;82.57;65.35;;;;;;;;;;4968789;28;20042;-64
2023/12/29 06:57:29;;;;;;;80.30;63.72;;;;;;;;;;4971986;28;20036;-64
2023/12/29 06:59:54;;;;;;;99.47;79.30;;;;;;;;;;4967001;28;20058;-65
2023/12/29 07:02:19;;;;;;;159.65;120.00;;;;;;;;;;4969925;28;20038;-66
2023/12/29 07:04:45;;;;;;;171.45;117.53;;;;;;;;;;4967017;28;20038;-66
2023/12/29 07:07:11;;;;;;;351.80;297.25;;;;;;;;;;4969270;28;20065;-63
2023/12/29 07:09:42;;;;;;;136.75;111.15;;;;;;;;;;4968747;28;20050;-65
2023/12/29 07:12:07;;;;;;;164.70;112.22;;;;;;;;;;4970280;28;20038;-64
2023/12/29 07:14:35;;;;;;;159.10;112.60;;;;;;;;;;4969718;28;20027;-64
2023/12/29 07:17:00;;;;;;;62.30;45.67;;;;;;;;;;4969281;28;20038;-65
2023/12/29 07:19:27;;;;;;;46.78;40.97;;;;;;;;;;4968676;28;20437;-66
2023/12/29 07:21:52;;;;;;;91.50;81.43;;;;;;;;;;4965905;28;20352;-65
2023/12/29 07:24:18;;;;;;;187.55;168.55;;;;;;;;;;4968154;28;20029;-65
2023/12/29 07:26:43;;;;;;;182.50;164.18;;;;;;;;;;4969898;28;20026;-65
2023/12/29 07:29:09;;;;;;;171.40;153.40;;;;;;;;;;4961541;28;20057;-65
2023/12/29 07:31:38;;;;;;;193.20;173.50;;;;;;;;;;4963523;28;20186;-67
2023/12/29 07:34:03;;;;;;;167.23;150.00;;;;;;;;;;4962570;28;20117;-66
2023/12/29 07:36:28;;;;;;;160.98;144.73;;;;;;;;;;4961998;28;20104;-66
2023/12/29 07:38:54;;;;;;;166.27;149.65;;;;;;;;;;4959418;28;20023;-67
2023/12/29 07:41:19;;;;;;;138.13;123.88;;;;;;;;;;4961665;28;20097;-65
2023/12/29 07:43:44;;;;;;;128.15;115.45;;;;;;;;;;4956904;28;20469;-65
2023/12/29 07:46:10;;;;;;;72.85;65.25;;;;;;;;;;4959648;28;20026;-67
2023/12/29 07:48:35;;;;;;;114.95;98.55;;;;;;;;;;4958276;28;20021;-65
2023/12/29 07:51:04;;;;;;;78.35;68.78;;;;;;;;;;4957382;28;20034;-65
2023/12/29 07:53:29;;;;;;;64.95;58.13;;;;;;;;;;4964613;28;20026;-66
2023/12/29 07:55:55;;;;;;;58.42;52.33;;;;;;;;;;4967318;28;20041;-66
2023/12/29 07:58:20;;;;;;;54.97;49.28;;;;;;;;;;4966360;28;20030;-67
2023/12/29 08:00:45;;;;;;;60.72;54.55;;;;;;;;;;4968189;28;20047;-68
2023/12/29 08:03:11;;;;;;;65.05;58.58;;;;;;;;;;4966218;28;20030;-68
2023/12/29 08:05:36;;;;;;;77.03;69.22;;;;;;;;;;4957042;28;20030;-66
2023/12/29 08:08:02;;;;;;;80.68;72.82;;;;;;;;;;4961042;28;20042;-67
2023/12/29 08:10:27;;;;;;;71.32;64.15;;;;;;;;;;4960735;28;20735;-64
2023/12/29 08:12:52;;;;;;;75.38;67.53;;;;;;;;;;4957769;28;20110;-65
2023/12/29 08:15:18;;;;;;;68.22;61.03;;;;;;;;;;4967015;28;20430;-65
2023/12/29 08:17:43;;;;;;;55.55;49.72;;;;;;;;;;4954766;28;20464;-67
2023/12/29 08:20:09;;;;;;;123.80;109.95;;;;;;;;;;4965310;28;20113;-66
2023/12/29 08:22:35;;;;;;;106.35;94.93;;;;;;;;;;4962516;28;20118;-68
2023/12/29 08:25:00;;;;;;;93.20;83.35;;;;;;;;;;4957838;28;20666;-67
2023/12/29 08:27:26;;;;;;;87.13;77.75;;;;;;;;;;4959837;28;20532;-66
2023/12/29 08:29:51;;;;;;;62.88;56.45;;;;;;;;;;4961151;28;20075;-67
2023/12/29 08:32:17;;;;;;;110.47;59.97;;;;;;;;;;4960256;28;20033;-66
2023/12/29 08:34:42;;;;;;;38.35;34.55;;;;;;;;;;4969187;28;20434;-66
2023/12/29 08:37:07;;;;;;;133.60;65.07;;;;;;;;;;4968534;28;20370;-66
2023/12/29 08:39:33;;;;;;;36.55;32.58;;;;;;;;;;4971053;28;20417;-66
2023/12/29 08:41:58;;;;;;;53.33;39.35;;;;;;;;;;4959256;28;20340;-66
2023/12/29 08:44:24;;;;;;;61.42;51.42;;;;;;;;;;4964146;28;20101;-66
2023/12/29 08:46:50;;;;;;;99.28;46.13;;;;;;;;;;4963503;28;20490;-68
2023/12/29 08:49:15;;;;;;;25.80;21.52;;;;;;;;;;4958563;28;20033;-66
2023/12/29 08:51:41;;;;;;;73.85;36.92;;;;;;;;;;4961395;28;20345;-67
2023/12/29 08:54:06;;;;;;;110.72;62.92;;;;;;;;;;4958941;28;20073;-65
2023/12/29 08:56:32;;;;;;;70.03;57.00;;;;;;;;;;4948626;28;20038;-65
2023/12/29 08:58:57;;;;;;;246.07;205.75;;;;;;;;;;4968393;28;20042;-65
2023/12/29 09:01:22;;;;;;;166.32;138.07;;;;;;;;;;4959842;28;20054;-67
2023/12/29 09:03:48;;;;;;;279.42;215.25;;;;;;;;;;4960732;28;20061;-66
2023/12/29 09:06:13;;;;;;;247.88;201.43;;;;;;;;;;4963705;28;20865;-66
2023/12/29 09:08:39;;;;;;;67.93;58.38;;;;;;;;;;4961726;28;20319;-66
2023/12/29 09:11:04;;;;;;;34.58;29.55;;;;;;;;;;4959893;28;20037;-65
2023/12/29 09:13:30;;;;;;;36.40;29.85;;;;;;;;;;4962313;28;20054;-66
2023/12/29 09:15:56;;;;;;;34.85;31.30;;;;;;;;;;4963383;28;20046;-68
2023/12/29 09:18:21;;;;;;;49.05;43.88;;;;;;;;;;4961894;28;20334;-67
2023/12/29 09:20:47;;;;;;;30.17;26.98;;;;;;;;;;4962354;28;20049;-67
2023/12/29 09:23:12;;;;;;;21.02;17.90;;;;;;;;;;4962068;28;20030;-67
2023/12/29 09:25:38;;;;;;;113.18;71.88;;;;;;;;;;4957622;28;20034;-67
2023/12/29 09:28:03;;;;;;;75.88;64.93;;;;;;;;;;4958397;28;22701;-67
2023/12/29 09:30:28;;;;;;;81.35;66.75;;;;;;;;;;4971613;28;20480;-67
2023/12/29 09:32:54;;;;;;;25.60;22.63;;;;;;;;;;4971153;28;20046;-68
2023/12/29 09:35:20;;;;;;;53.42;39.55;;;;;;;;;;4962168;28;20044;-67
2023/12/29 09:37:47;;;;;;;48.25;33.17;;;;;;;;;;4967361;28;20029;-68
2023/12/29 09:40:12;;;;;;;47.30;42.20;;;;;;;;;;4969634;28;20023;-68
2023/12/29 09:42:38;;;;;;;35.78;31.83;;;;;;;;;;4969070;28;20045;-68
2023/12/29 09:45:06;;;;;;;29.50;25.40;;;;;;;;;;4970457;28;20037;-67
2023/12/29 09:47:33;;;;;;;32.63;29.08;;;;;;;;;;4972718;28;20358;-67
2023/12/29 09:49:58;;;;;;;25.05;22.45;;;;;;;;;;4969579;28;20033;-64
2023/12/29 09:52:24;;;;;;;21.65;18.02;;;;;;;;;;4971830;28;20046;-65
2023/12/29 09:54:51;;;;;;;25.02;20.25;;;;;;;;;;4968423;28;20031;-68
2023/12/29 09:57:18;;;;;;;28.20;19.52;;;;;;;;;;4971139;28;20034;-66
2023/12/29 09:59:43;;;;;;;25.98;23.33;;;;;;;;;;4970700;28;20038;-66
2023/12/29 10:02:15;;;;;;;29.58;23.90;;;;;;;;;;4969681;28;20038;-65
2023/12/29 10:04:41;;;;;;;24.42;19.90;;;;;;;;;;4969289;28;20490;-67
2023/12/29 10:07:07;;;;;;;26.80;21.35;;;;;;;;;;4971107;28;20054;-66
2023/12/29 10:09:33;;;;;;;27.95;20.95;;;;;;;;;;4968080;28;20050;-65
2023/12/29 10:11:59;;;;;;;23.58;19.27;;;;;;;;;;4970072;28;20079;-65
2023/12/29 10:14:30;;;;;;;28.73;24.52;;;;;;;;;;4969589;28;20058;-66
2023/12/29 10:17:19;;;;;;;68.70;60.35;;;;;;;;;;4970809;28;20034;-66
2023/12/29 10:19:54;;;;;;;53.67;45.37;;;;;;;;;;4964495;28;20125;-65
2023/12/29 10:22:29;;;;;;;29.77;22.30;;;;;;;;;;4968381;28;20129;-66
2023/12/29 10:24:55;;;;;;;40.97;36.53;;;;;;;;;;4970627;28;20509;-65
2023/12/29 10:27:20;;;;;;;52.78;45.17;;;;;;;;;;4969466;28;20117;-65
2023/12/29 10:29:46;;;;;;;37.78;33.53;;;;;;;;;;4970095;28;20365;-66
2023/12/29 10:32:11;;;;;;;35.72;31.25;;;;;;;;;;4968743;28;20096;-65
2023/12/29 10:34:37;;;;;;;50.45;42.33;;;;;;;;;;4969025;28;20085;-65
2023/12/29 10:37:06;;;;;;;36.80;32.88;;;;;;;;;;4970781;28;20035;-65
2023/12/29 10:39:31;;;;;;;;;;;;;;;;;;4969297;28;20110;-66
2023/12/29 10:42:05;;;;;;;27.00;24.20;;;;;;;;;;4967948;28;20037;-66
2023/12/29 10:44:30;;;;;;;28.17;23.25;;;;;;;;;;4969975;28;20559;-66
2023/12/29 10:46:56;;;;;;;28.65;20.55;;;;;;;;;;4969972;28;20033;-66
2023/12/29 10:49:21;;;;;;;17.33;14.75;;;;;;;;;;4969126;28;20086;-64
2023/12/29 10:51:47;;;;;;;23.08;18.70;;;;;;;;;;4974367;28;20093;-64
2023/12/29 10:54:23;;;;;;;26.83;22.23;;;;;;;;;;4973853;28;20043;-68
2023/12/29 10:57:01;;;;;;;25.13;21.73;;;;;;;;;;4973881;28;20041;-64
2023/12/29 10:59:26;;;;;;;34.35;28.98;;;;;;;;;;4971708;28;20034;-65
2023/12/29 11:01:53;;;;;;;34.95;28.98;;;;;;;;;;4969669;28;20062;-65
2023/12/29 11:04:21;;;;;;;24.40;21.83;;;;;;;;;;4967501;28;20062;-65
2023/12/29 11:06:48;;;;;;;26.25;23.42;;;;;;;;;;4969767;28;20439;-71
2023/12/29 11:09:13;;;;;;;22.85;20.33;;;;;;;;;;4970308;28;20054;-66
2023/12/29 11:11:39;;;;;;;25.17;22.42;;;;;;;;;;4971460;28;20116;-69
2023/12/29 11:14:04;;;;;;;37.67;30.02;;;;;;;;;;4970392;28;20045;-68
2023/12/29 11:16:31;;;;;;;30.80;22.10;;;;;;;;;;4965211;28;20053;-69
2023/12/29 11:18:57;;;;;;;38.70;26.92;;;;;;;;;;4957253;28;20050;-71
2023/12/29 11:21:25;;;;;;;28.50;21.38;;;;;;;;;;4958434;28;20505;-70
2023/12/29 11:23:51;;;;;;;21.85;18.75;;;;;;;;;;4958515;28;20394;-68
2023/12/29 11:26:16;;;;;;;35.75;29.70;;;;;;;;;;4956712;28;20452;-70
2023/12/29 11:28:42;;;;;;;33.45;25.73;;;;;;;;;;4943422;28;20052;-68
2023/12/29 11:31:08;;;;;;;26.42;20.80;;;;;;;;;;4956278;28;20030;-68
2023/12/29 11:33:41;;;;;;;22.55;19.20;;;;;;;;;;4955719;28;20443;-68
2023/12/29 11:36:16;;;;;;;21.90;19.60;;;;;;;;;;4952958;28;20422;-68
2023/12/29 11:38:42;;;;;;;18.20;15.38;;;;;;;;;;4954142;28;20865;-69
2023/12/29 11:41:07;;;;;;;19.35;16.67;;;;;;;;;;4957726;28;20038;-68
2023/12/29 11:43:32;;;;;;;23.08;19.33;;;;;;;;;;4955030;28;20058;-70
2023/12/29 11:45:58;;;;;;;19.88;15.82;;;;;;;;;;4957159;28;20026;-69
2023/12/29 11:48:43;;;;;;;17.40;14.38;;;;;;;;;;4955048;28;20055;-70
2023/12/29 11:51:27;;;;;;;22.88;18.40;;;;;;;;;;4946194;28;20042;-66
2023/12/29 11:53:53;;;;;;;27.92;24.02;;;;;;;;;;4956058;28;20027;-69
2023/12/29 11:56:18;;;;;;;16.40;14.20;;;;;;;;;;4952114;28;20117;-69
2023/12/29 11:58:43;;;;;;;18.88;14.40;;;;;;;;;;4964074;28;20161;-69
2023/12/29 12:01:09;;;;;;;22.25;18.98;;;;;;;;;;4971239;28;20133;-70
2023/12/29 12:03:35;;;;;;;23.00;19.35;;;;;;;;;;4969428;28;20026;-70
2023/12/29 12:06:03;;;;;;;20.08;17.25;;;;;;;;;;4967760;28;20030;-70
2023/12/29 12:08:35;;;;;;;20.50;14.95;;;;;;;;;;4968189;28;20038;-69
2023/12/29 12:11:19;;;;;;;96.03;64.93;;;;;;;;;;4949136;28;20051;-71
2023/12/29 12:13:45;;;;;;;65.95;42.92;;;;;;;;;;4942448;28;20121;-69
2023/12/29 12:16:29;;;;;;;39.38;30.17;;;;;;;;;;4944349;28;20037;-68
2023/12/29 12:18:55;;;;;;;19.80;17.10;;;;;;;;;;4949456;28;20027;-68
2023/12/29 12:21:22;;;;;;;31.38;24.17;;;;;;;;;;4948956;28;20432;-69
2023/12/29 12:23:47;;;;;;;32.55;27.05;;;;;;;;;;4946963;28;20138;-70
2023/12/29 12:26:13;;;;;;;17.63;14.00;;;;;;;;;;4952529;28;20125;-70
2023/12/29 12:28:43;;;;;;;27.35;22.08;;;;;;;;;;4963355;28;20177;-70
2023/12/29 12:31:09;;;;;;;25.23;18.20;;;;;;;;;;4962866;28;20038;-70
2023/12/29 12:33:34;;;;;;;33.22;26.45;;;;;;;;;;4957672;28;20357;-69
2023/12/29 12:36:00;;;;;;;45.55;35.00;;;;;;;;;;4960097;28;20027;-70
2023/12/29 12:38:27;;;;;;;20.52;16.30;;;;;;;;;;4957636;28;20027;-69
2023/12/29 12:40:57;;;;;;;49.67;34.53;;;;;;;;;;4957343;28;20045;-71
2023/12/29 12:43:24;;;;;;;37.38;27.52;;;;;;;;;;4957340;28;20076;-70
2023/12/29 12:45:53;;;;;;;26.55;21.25;;;;;;;;;;4959741;28;20045;-71
2023/12/29 12:48:23;;;;;;;35.90;25.45;;;;;;;;;;4956797;28;20035;-71
2023/12/29 12:50:49;;;;;;;34.15;27.67;;;;;;;;;;4952103;28;20046;-69
2023/12/29 12:53:20;;;;;;;23.88;20.38;;;;;;;;;;4948342;28;20027;-68
2023/12/29 12:55:47;;;;;;;29.00;23.00;;;;;;;;;;4947383;28;20375;-69
2023/12/29 12:58:14;;;;;;;17.85;15.20;;;;;;;;;;4949284;28;20524;-70
2023/12/29 13:00:41;;;;;;;22.13;17.52;;;;;;;;;;4950090;28;20030;-69
2023/12/29 13:03:07;;;;;;;26.02;18.00;;;;;;;;;;4949883;28;20035;-69
2023/12/29 13:05:32;;;;;;;19.48;15.82;;;;;;;;;;4947619;28;20361;-69
2023/12/29 13:08:02;;;;;;;27.08;21.25;;;;;;;;;;4944604;28;20019;-70
2023/12/29 13:10:28;;;;;;;41.67;31.17;;;;;;;;;;4958612;28;20043;-69
2023/12/29 13:12:55;;;;;;;27.67;21.88;;;;;;;;;;4962023;28;20351;-70
2023/12/29 13:15:20;;;;;;;38.17;31.15;;;;;;;;;;4947748;28;20065;-67
2023/12/29 13:17:52;;;;;;;23.45;18.05;;;;;;;;;;4950457;28;20455;-68
2023/12/29 13:20:17;;;;;;;26.08;19.95;;;;;;;;;;4952758;28;20034;-69
2023/12/29 13:22:43;;;;;;;24.13;18.25;;;;;;;;;;4953153;28;20097;-70
2023/12/29 13:25:09;;;;;;;32.72;27.52;;;;;;;;;;4954848;28;20020;-69
2023/12/29 13:27:36;;;;;;;19.98;17.35;;;;;;;;;;4955752;28;20035;-67
2023/12/29 13:30:02;;;;;;;24.75;22.08;;;;;;;;;;4950739;28;20761;-67
2023/12/29 13:32:28;;;;;;;32.17;28.75;;;;;;;;;;4938487;28;20031;-67
2023/12/29 13:35:18;;;;;;;23.20;20.75;;;;;;;;;;4939602;28;20042;-66
2023/12/29 13:37:46;;;;;;;24.98;19.80;;;;;;;;;;4945847;28;20386;-69
2023/12/29 13:40:11;;;;;;;21.90;17.27;;;;;;;;;;4939302;28;20089;-68
2023/12/29 13:42:39;;;;;;;22.70;19.77;;;;;;;;;;4950393;28;20039;-66
2023/12/29 13:45:05;;;;;;;22.15;18.75;;;;;;;;;;4949600;28;20031;-67
2023/12/29 13:47:31;;;;;;;28.98;24.23;;;;;;;;;;4950918;28;20030;-66
2023/12/29 13:49:56;;;;;;;41.78;37.25;;;;;;;;;;4949714;28;20046;-66
2023/12/29 13:52:22;;;;;;;29.02;25.92;;;;;;;;;;4953517;28;20035;-67
2023/12/29 13:54:48;;;;;;;28.48;24.50;;;;;;;;;;4957044;28;20031;-67
2023/12/29 13:57:14;;;;;;;26.45;21.13;;;;;;;;;;4961634;28;20035;-68
2023/12/29 13:59:39;;;;;;;27.10;21.45;;;;;;;;;;4958487;28;20438;-64
2023/12/29 14:02:21;;;;;;;36.80;27.33;;;;;;;;;;4950753;28;20062;-66
2023/12/29 14:04:46;;;;;;;41.03;32.35;;;;;;;;;;4959154;28;20053;-66
2023/12/29 14:07:12;;;;;;;41.92;35.00;;;;;;;;;;4961695;28;20027;-66
2023/12/29 14:09:38;;;;;;;27.40;22.30;;;;;;;;;;4971657;28;20133;-65